createdAt,value
2023-01-23T00:00:53.062Z,12.80
2023-01-23T00:01:54.723Z,14.27
2023-01-23T00:02:59.067Z,12.27
2023-01-23T00:04:01.002Z,13.30
2023-01-23T00:05:04.061Z,13.10
2023-01-23T00:06:08.586Z,12.68
2023-01-23T00:07:11.502Z,13.52
2023-01-23T00:08:13.126Z,13.32
2023-01-23T00:09:15.717Z,13.52
2023-01-23T00:10:17.787Z,12.70
2023-01-23T00:11:22.646Z,13.30
2023-01-23T00:12:24.242Z,12.82
2023-01-23T00:13:27.450Z,12.88
2023-01-23T00:14:29.132Z,13.40
2023-01-23T00:15:33.228Z,13.00
2023-01-23T00:16:35.928Z,13.45
2023-01-23T00:17:40.327Z,13.60
2023-01-23T00:18:43.404Z,13.13
2023-01-23T00:19:45.981Z,13.32
2023-01-23T00:20:47.854Z,13.57
2023-01-23T00:21:52.967Z,14.00
2023-01-23T00:22:55.000Z,13.13
2023-01-23T00:23:59.021Z,13.80
2023-01-23T00:25:00.635Z,12.55
2023-01-23T00:26:04.978Z,13.02
2023-01-23T00:27:07.649Z,13.98
2023-01-23T00:28:09.278Z,12.43
2023-01-23T00:29:12.077Z,12.98
2023-01-23T00:30:13.841Z,12.57
2023-01-23T00:31:18.519Z,13.80
2023-01-23T00:32:20.308Z,13.23
2023-01-23T00:33:22.908Z,13.25
2023-01-23T00:34:25.948Z,12.88
2023-01-23T00:35:28.552Z,13.48
2023-01-23T00:36:31.940Z,13.13
2023-01-23T00:37:34.528Z,13.40
2023-01-23T00:38:36.465Z,14.02
2023-01-23T00:39:39.140Z,12.55
2023-01-23T00:40:40.860Z,13.55
2023-01-23T00:41:43.545Z,13.50
2023-01-23T00:42:45.272Z,12.63
2023-01-23T00:43:48.523Z,13.57
2023-01-23T00:44:50.123Z,13.90
2023-01-23T00:45:53.043Z,13.95
2023-01-23T00:46:55.610Z,14.30
2023-01-23T00:47:57.435Z,12.98
2023-01-23T00:49:00.022Z,14.20
2023-01-23T00:50:02.966Z,14.23
2023-01-23T00:51:06.522Z,13.38
2023-01-23T00:52:08.118Z,14.35
2023-01-23T00:53:10.713Z,13.80
2023-01-23T00:54:12.674Z,13.68
2023-01-23T00:55:15.260Z,13.77
2023-01-23T00:56:17.031Z,14.35
2023-01-23T00:57:19.640Z,13.88
2023-01-23T00:58:21.792Z,14.57
2023-01-23T00:59:24.610Z,14.38
2023-01-23T01:00:26.720Z,14.45
2023-01-23T01:01:31.531Z,14.20
2023-01-23T01:02:33.398Z,14.50
2023-01-23T01:03:36.958Z,14.48
2023-01-23T01:04:38.663Z,14.00
2023-01-23T01:05:42.964Z,14.45
2023-01-23T01:06:44.751Z,14.65
2023-01-23T01:07:47.420Z,15.02
2023-01-23T01:08:49.456Z,15.18
2023-01-23T01:09:52.331Z,14.60
2023-01-23T01:10:54.157Z,15.05
2023-01-23T01:11:56.672Z,14.98
2023-01-23T01:13:00.208Z,15.13
2023-01-23T01:14:04.030Z,14.50
2023-01-23T01:15:08.345Z,14.95
2023-01-23T01:16:12.525Z,15.55
2023-01-23T01:17:14.109Z,14.07
2023-01-23T01:18:17.392Z,14.75
2023-01-23T01:19:19.210Z,14.43
2023-01-23T01:20:23.630Z,14.45
2023-01-23T01:21:26.766Z,14.52
2023-01-23T01:22:29.496Z,15.70
2023-01-23T01:23:31.346Z,14.85
2023-01-23T01:24:33.951Z,15.32
2023-01-23T01:25:35.903Z,15.35
2023-01-23T01:26:38.487Z,15.23
2023-01-23T01:27:40.174Z,15.10
2023-01-23T01:28:43.680Z,14.27
2023-01-23T01:29:45.326Z,14.80
2023-01-23T01:30:47.930Z,16.13
2023-01-23T01:31:49.681Z,15.73
2023-01-23T01:32:52.295Z,15.32
2023-01-23T01:33:54.094Z,15.30
2023-01-23T01:34:56.658Z,15.65
2023-01-23T01:35:58.270Z,15.45
2023-01-23T01:37:03.175Z,15.18
2023-01-23T01:38:04.819Z,16.17
2023-01-23T01:39:07.458Z,15.68
2023-01-23T01:40:13.429Z,15.38
2023-01-23T01:41:16.360Z,16.20
2023-01-23T01:42:18.000Z,14.70
2023-01-23T01:43:22.734Z,15.73
2023-01-23T01:44:26.167Z,16.00
2023-01-23T01:46:04.357Z,16.70
2023-01-23T01:47:08.016Z,16.27
2023-01-23T01:48:09.747Z,17.27
2023-01-23T01:49:15.701Z,16.25
2023-01-23T01:50:17.783Z,15.25
2023-01-23T01:51:26.873Z,15.25
2023-01-23T01:52:29.896Z,15.90
2023-01-23T01:53:34.559Z,15.70
2023-01-23T01:54:41.912Z,15.80
2023-01-23T01:55:45.027Z,15.80
2023-01-23T01:56:52.091Z,16.17
2023-01-23T01:57:54.821Z,16.73
2023-01-23T01:58:58.556Z,15.68
2023-01-23T02:00:07.076Z,16.02
2023-01-23T02:01:09.396Z,15.85
2023-01-23T02:02:15.529Z,16.45
2023-01-23T02:03:19.590Z,16.05
2023-01-23T02:04:22.358Z,16.52
2023-01-23T02:05:27.857Z,15.68
2023-01-23T02:06:30.673Z,16.02
2023-01-23T02:07:38.714Z,17.17
2023-01-23T02:08:48.396Z,16.65
2023-01-23T02:09:50.232Z,16.27
2023-01-23T02:10:53.841Z,15.88
2023-01-23T02:11:56.553Z,16.83
2023-01-23T02:13:23.861Z,16.55
2023-01-23T02:14:26.572Z,16.10
2023-01-23T02:15:28.200Z,16.90
2023-01-23T02:16:40.263Z,16.33
2023-01-23T02:17:43.373Z,15.82
2023-01-23T02:18:48.263Z,17.52
2023-01-23T02:20:02.253Z,16.55
2023-01-23T02:21:07.782Z,16.80
2023-01-23T02:22:22.251Z,17.65
2023-01-23T02:23:36.553Z,16.63
2023-01-23T02:24:49.005Z,16.63
2023-01-23T02:25:56.179Z,16.95
2023-01-23T02:26:58.862Z,16.27
2023-01-23T02:28:01.495Z,17.33
2023-01-23T02:29:05.076Z,16.10
2023-01-23T02:30:08.676Z,16.60
2023-01-23T02:31:11.727Z,16.25
2023-01-23T02:32:13.377Z,15.77
2023-01-23T02:33:51.019Z,16.05
2023-01-23T02:34:58.508Z,16.85
2023-01-23T02:36:00.329Z,15.57
2023-01-23T02:37:03.334Z,16.20
2023-01-23T02:38:06.494Z,17.13
2023-01-23T02:39:11.408Z,16.13
2023-01-23T02:40:13.636Z,16.88
2023-01-23T02:41:21.734Z,18.05
2023-01-23T02:42:26.173Z,16.95
2023-01-23T02:43:35.209Z,16.88
2023-01-23T02:44:37.763Z,17.50
2023-01-23T02:45:41.609Z,16.77
2023-01-23T02:46:44.301Z,17.15
2023-01-23T02:47:45.901Z,17.05
2023-01-23T02:48:48.945Z,17.25
2023-01-23T02:49:51.448Z,17.60
2023-01-23T02:50:53.278Z,16.42
2023-01-23T02:51:57.089Z,16.83
2023-01-23T02:52:58.838Z,16.92
2023-01-23T02:54:01.682Z,16.65
2023-01-23T02:55:03.821Z,17.55
2023-01-23T02:56:07.154Z,17.95
2023-01-23T02:57:10.280Z,17.77
2023-01-23T02:58:30.385Z,16.70
2023-01-23T02:59:50.285Z,12.88
2023-01-23T03:00:53.179Z,17.05
2023-01-23T03:01:55.488Z,15.90
2023-01-23T03:02:58.298Z,15.63
2023-01-23T03:04:04.241Z,15.98
2023-01-23T03:05:08.171Z,16.23
2023-01-23T03:06:10.840Z,16.20
2023-01-23T03:07:13.539Z,16.48
2023-01-23T03:08:15.247Z,17.65
2023-01-23T03:09:19.311Z,17.10
2023-01-23T03:10:21.364Z,16.38
2023-01-23T03:11:25.809Z,17.10
2023-01-23T03:12:29.934Z,16.50
2023-01-23T03:13:33.055Z,16.70
2023-01-23T03:14:36.240Z,17.20
2023-01-23T03:15:38.540Z,17.65
2023-01-23T03:16:42.958Z,16.85
2023-01-23T03:17:44.884Z,16.83
2023-01-23T03:18:54.799Z,17.40
2023-01-23T03:19:58.021Z,14.43
2023-01-23T03:21:02.619Z,17.70
2023-01-23T03:22:05.273Z,16.88
2023-01-23T03:23:07.089Z,16.65
2023-01-23T03:24:11.962Z,17.95
2023-01-23T03:25:13.806Z,17.90
2023-01-23T03:26:18.161Z,16.85
2023-01-23T03:27:21.072Z,17.25
2023-01-23T03:28:42.786Z,16.83
2023-01-23T03:30:02.913Z,16.92
2023-01-23T03:31:04.986Z,17.75
2023-01-23T03:32:08.848Z,17.77
2023-01-23T03:33:10.793Z,18.02
2023-01-23T03:34:13.685Z,17.73
2023-01-23T03:35:16.799Z,19.35
2023-01-23T03:36:19.517Z,18.10
2023-01-23T03:37:22.425Z,18.40
2023-01-23T03:38:24.294Z,17.67
2023-01-23T03:39:44.915Z,18.30
2023-01-23T03:41:08.886Z,14.10
2023-01-23T03:42:11.839Z,18.40
2023-01-23T03:43:13.799Z,17.73
2023-01-23T03:44:20.188Z,18.08
2023-01-23T03:45:22.121Z,18.73
2023-01-23T03:46:25.152Z,18.08
2023-01-23T03:47:27.362Z,18.10
2023-01-23T03:48:30.282Z,17.67
2023-01-23T03:49:32.431Z,18.52
2023-01-23T03:50:35.185Z,18.15
2023-01-23T03:51:37.093Z,17.95
2023-01-23T03:52:39.907Z,18.50
2023-01-23T03:53:41.647Z,18.88
2023-01-23T03:54:44.349Z,18.83
2023-01-23T03:55:46.783Z,18.60
2023-01-23T03:56:49.687Z,19.52
2023-01-23T03:57:52.522Z,18.40
2023-01-23T03:58:55.386Z,19.33
2023-01-23T03:59:59.720Z,19.30
2023-01-23T04:01:03.577Z,19.33
2023-01-23T04:02:07.105Z,19.75
2023-01-23T04:03:08.879Z,19.55
2023-01-23T04:04:11.911Z,19.55
2023-01-23T04:05:13.776Z,18.92
2023-01-23T04:06:16.705Z,19.25
2023-01-23T04:07:19.735Z,19.92
2023-01-23T04:08:22.906Z,19.15
2023-01-23T04:09:27.973Z,19.83
2023-01-23T04:10:30.213Z,20.08
2023-01-23T04:11:33.200Z,19.88
2023-01-23T04:12:34.912Z,19.13
2023-01-23T04:13:39.689Z,20.20
2023-01-23T04:14:44.636Z,20.70
2023-01-23T04:15:48.696Z,21.20
2023-01-23T04:16:51.454Z,20.25
2023-01-23T04:17:54.301Z,19.27
2023-01-23T04:18:56.573Z,19.45
2023-01-23T04:19:59.313Z,19.73
2023-01-23T04:21:01.288Z,19.10
2023-01-23T04:22:05.086Z,19.58
2023-01-23T04:23:06.957Z,19.75
2023-01-23T04:24:09.811Z,21.08
2023-01-23T04:25:11.560Z,18.80
2023-01-23T04:26:14.531Z,20.63
2023-01-23T04:27:16.231Z,18.85
2023-01-23T04:28:19.579Z,19.77
2023-01-23T04:29:21.314Z,18.42
2023-01-23T04:30:24.211Z,19.35
2023-01-23T04:31:27.338Z,18.45
2023-01-23T04:32:30.084Z,19.25
2023-01-23T04:33:32.094Z,20.15
2023-01-23T04:34:34.941Z,18.73
2023-01-23T04:35:36.719Z,19.75
2023-01-23T04:36:39.827Z,19.45
2023-01-23T04:37:41.743Z,19.88
2023-01-23T04:38:44.531Z,19.95
2023-01-23T04:39:46.478Z,18.92
2023-01-23T04:40:49.701Z,19.42
2023-01-23T04:41:51.637Z,20.42
2023-01-23T04:42:54.598Z,19.45
2023-01-23T04:43:56.506Z,20.48
2023-01-23T04:44:59.177Z,19.13
2023-01-23T04:46:01.217Z,19.13
2023-01-23T04:47:05.374Z,19.38
2023-01-23T04:48:07.488Z,19.70
2023-01-23T04:49:10.195Z,18.75
2023-01-23T04:50:12.007Z,18.42
2023-01-23T04:51:15.228Z,18.45
2023-01-23T04:52:17.006Z,19.67
2023-01-23T04:53:20.742Z,19.70
2023-01-23T04:54:22.556Z,18.58
2023-01-23T04:55:25.497Z,19.55
2023-01-23T04:56:27.349Z,19.77
2023-01-23T04:57:30.146Z,20.58
2023-01-23T04:58:31.931Z,20.58
2023-01-23T04:59:34.893Z,18.35
2023-01-23T05:00:37.309Z,19.00
2023-01-23T05:01:40.740Z,18.95
2023-01-23T05:02:46.156Z,18.52
2023-01-23T05:03:49.314Z,19.77
2023-01-23T05:04:51.473Z,19.40
2023-01-23T05:05:54.649Z,19.00
2023-01-23T05:06:56.496Z,19.40
2023-01-23T05:07:59.679Z,19.23
2023-01-23T05:09:01.568Z,19.92
2023-01-23T05:10:05.117Z,19.77
2023-01-23T05:11:06.872Z,18.40
2023-01-23T05:12:09.696Z,20.05
2023-01-23T05:13:11.734Z,20.02
2023-01-23T05:14:14.581Z,18.90
2023-01-23T05:15:17.392Z,19.40
2023-01-23T05:16:20.324Z,19.17
2023-01-23T05:17:22.209Z,18.95
2023-01-23T05:18:26.654Z,18.80
2023-01-23T05:19:28.435Z,20.38
2023-01-23T05:20:31.335Z,19.92
2023-01-23T05:21:33.649Z,19.08
2023-01-23T05:22:36.895Z,18.63
2023-01-23T05:23:38.709Z,18.40
2023-01-23T05:24:41.524Z,20.42
2023-01-23T05:25:43.573Z,20.50
2023-01-23T05:26:46.406Z,20.88
2023-01-23T05:27:48.278Z,19.70
2023-01-23T05:28:53.886Z,20.65
2023-01-23T05:29:57.019Z,20.17
2023-01-23T05:30:58.986Z,20.45
2023-01-23T05:32:15.548Z,20.98
2023-01-23T05:33:17.619Z,21.30
2023-01-23T05:34:24.842Z,20.27
2023-01-23T05:35:26.723Z,21.15
2023-01-23T05:36:29.477Z,22.58
2023-01-23T05:37:31.394Z,21.75
2023-01-23T05:38:34.756Z,21.83
2023-01-23T05:39:36.624Z,21.83
2023-01-23T05:40:41.256Z,20.40
2023-01-23T05:41:43.539Z,20.23
2023-01-23T05:42:46.776Z,21.77
2023-01-23T05:43:50.034Z,22.20
2023-01-23T05:44:53.037Z,21.60
2023-01-23T05:45:54.880Z,21.23
2023-01-23T05:47:00.461Z,22.23
2023-01-23T05:48:02.415Z,20.48
2023-01-23T05:49:05.452Z,21.70
2023-01-23T05:50:15.162Z,21.38
2023-01-23T05:51:18.901Z,20.92
2023-01-23T05:52:25.294Z,21.65
2023-01-23T05:53:28.448Z,21.70
2023-01-23T05:54:31.320Z,21.35
2023-01-23T05:55:34.191Z,21.45
2023-01-23T05:56:35.915Z,22.17
2023-01-23T05:57:38.825Z,21.20
2023-01-23T05:58:40.766Z,21.50
2023-01-23T05:59:43.654Z,21.25
2023-01-23T06:00:46.897Z,21.48
2023-01-23T06:01:50.012Z,21.83
2023-01-23T06:02:52.111Z,21.50
2023-01-23T06:03:55.226Z,21.55
2023-01-23T06:04:58.974Z,21.75
2023-01-23T06:06:03.858Z,22.23
2023-01-23T06:07:09.402Z,23.25
2023-01-23T06:08:12.383Z,21.38
2023-01-23T06:09:14.241Z,21.20
2023-01-23T06:10:17.493Z,21.42
2023-01-23T06:11:19.470Z,21.80
2023-01-23T06:12:22.370Z,21.00
2023-01-23T06:13:24.815Z,21.85
2023-01-23T06:14:28.031Z,22.58
2023-01-23T06:15:30.966Z,22.27
2023-01-23T06:16:33.536Z,21.65
2023-01-23T06:17:36.524Z,22.55
2023-01-23T06:18:38.420Z,22.02
2023-01-23T06:19:42.449Z,22.92
2023-01-23T06:20:44.201Z,23.05
2023-01-23T06:21:48.767Z,22.42
2023-01-23T06:22:51.116Z,21.50
2023-01-23T06:23:53.925Z,22.02
2023-01-23T06:24:57.249Z,23.30
2023-01-23T06:26:00.937Z,23.83
2023-01-23T06:27:08.212Z,24.50
2023-01-23T06:28:09.947Z,24.45
2023-01-23T06:29:12.686Z,23.02
2023-01-23T06:30:15.598Z,23.88
2023-01-23T06:31:19.072Z,22.50
2023-01-23T06:32:23.595Z,22.77
2023-01-23T06:33:26.574Z,22.52
2023-01-23T06:34:28.311Z,22.13
2023-01-23T06:35:31.112Z,23.30
2023-01-23T06:36:34.786Z,22.48
2023-01-23T06:37:43.311Z,22.92
2023-01-23T06:38:45.248Z,23.00
2023-01-23T06:39:48.233Z,22.80
2023-01-23T06:40:50.141Z,23.55
2023-01-23T06:41:52.889Z,23.17
2023-01-23T06:42:57.715Z,23.42
2023-01-23T06:44:00.622Z,23.58
2023-01-23T06:45:02.624Z,23.63
2023-01-23T06:46:05.962Z,24.17
2023-01-23T06:47:10.741Z,22.10
2023-01-23T06:48:14.186Z,21.73
2023-01-23T06:49:17.005Z,21.95
2023-01-23T06:50:19.369Z,23.65
2023-01-23T06:51:22.871Z,23.05
2023-01-23T06:52:26.822Z,22.27
2023-01-23T06:53:30.598Z,22.95
2023-01-23T06:54:33.833Z,22.08
2023-01-23T06:55:36.040Z,22.45
2023-01-23T06:56:39.274Z,22.65
2023-01-23T06:57:41.004Z,22.63
2023-01-23T06:58:45.803Z,23.65
2023-01-23T06:59:47.765Z,23.02
2023-01-23T07:00:50.545Z,22.95
2023-01-23T07:01:53.937Z,23.67
2023-01-23T07:02:59.118Z,21.80
2023-01-23T07:04:01.930Z,23.15
2023-01-23T07:05:04.950Z,22.08
2023-01-23T07:06:07.608Z,23.38
2023-01-23T07:07:10.508Z,22.98
2023-01-23T07:08:12.792Z,21.70
2023-01-23T07:09:17.147Z,22.05
2023-01-23T07:10:20.531Z,22.65
2023-01-23T07:11:22.879Z,23.10
2023-01-23T07:12:26.236Z,23.27
2023-01-23T07:13:28.703Z,22.45
2023-01-23T07:14:33.472Z,23.00
2023-01-23T07:15:41.105Z,24.15
2023-01-23T07:16:49.613Z,23.15
2023-01-23T07:17:51.754Z,23.70
2023-01-23T07:19:01.692Z,24.95
2023-01-23T07:20:05.261Z,20.80
2023-01-23T07:21:08.936Z,22.95
2023-01-23T07:22:11.871Z,22.80
2023-01-23T07:23:15.100Z,23.75
2023-01-23T07:24:22.036Z,24.35
2023-01-23T07:25:25.251Z,23.50
2023-01-23T07:26:28.079Z,22.10
2023-01-23T07:27:33.498Z,24.52
2023-01-23T07:28:38.195Z,23.60
2023-01-23T07:29:41.932Z,23.73
2023-01-23T07:30:48.779Z,23.38
2023-01-23T07:31:51.391Z,23.17
2023-01-23T07:32:55.132Z,23.77
2023-01-23T07:33:57.633Z,22.98
2023-01-23T07:35:05.679Z,23.42
2023-01-23T07:36:09.878Z,23.45
2023-01-23T07:37:12.630Z,23.17
2023-01-23T07:38:16.612Z,23.98
2023-01-23T07:39:22.270Z,23.42
2023-01-23T07:40:26.387Z,23.65
2023-01-23T07:41:28.638Z,23.48
2023-01-23T07:42:32.547Z,22.85
2023-01-23T07:43:36.130Z,24.45
2023-01-23T07:44:41.120Z,22.35
2023-01-23T07:45:44.863Z,23.67
2023-01-23T07:46:49.899Z,22.00
2023-01-23T07:47:52.479Z,24.35
2023-01-23T07:48:56.495Z,23.20
2023-01-23T07:49:59.555Z,23.52
2023-01-23T07:51:04.640Z,23.13
2023-01-23T07:52:08.431Z,23.00
2023-01-23T07:53:11.125Z,23.92
2023-01-23T07:54:15.050Z,22.67
2023-01-23T07:55:19.450Z,23.10
2023-01-23T07:56:25.434Z,23.67
2023-01-23T07:57:27.747Z,23.48
2023-01-23T07:58:31.446Z,23.92
2023-01-23T07:59:33.949Z,22.73
2023-01-23T08:00:37.299Z,23.63
2023-01-23T08:01:40.615Z,22.73
2023-01-23T08:02:43.389Z,23.17
2023-01-23T08:03:46.812Z,23.42
2023-01-23T08:04:51.035Z,22.58
2023-01-23T08:05:54.916Z,22.83
2023-01-23T08:06:58.970Z,23.83
2023-01-23T08:08:13.136Z,22.40
2023-01-23T08:09:17.466Z,23.65
2023-01-23T08:10:26.320Z,25.58
2023-01-23T08:11:30.176Z,23.85
2023-01-23T08:12:36.297Z,22.90
2023-01-23T08:13:43.026Z,23.67
2023-01-23T08:14:52.168Z,24.30
2023-01-23T08:15:54.908Z,22.70
2023-01-23T08:16:58.824Z,24.02
2023-01-23T08:18:02.160Z,22.90
2023-01-23T08:19:08.501Z,23.75
2023-01-23T08:20:15.596Z,22.02
2023-01-23T08:21:18.469Z,23.95
2023-01-23T08:22:23.772Z,23.05
2023-01-23T08:23:31.904Z,23.38
2023-01-23T08:24:38.509Z,23.85
2023-01-23T08:25:43.145Z,23.08
2023-01-23T08:26:53.377Z,22.90
2023-01-23T08:27:56.295Z,23.02
2023-01-23T08:29:02.891Z,23.83
2023-01-23T08:30:08.615Z,23.25
2023-01-23T08:31:14.602Z,22.65
2023-01-23T08:32:18.212Z,22.65
2023-01-23T08:33:23.337Z,21.90
2023-01-23T08:34:27.347Z,23.58
2023-01-23T08:35:29.167Z,23.05
2023-01-23T08:36:32.123Z,22.70
2023-01-23T08:37:34.587Z,22.92
2023-01-23T08:38:37.396Z,23.23
2023-01-23T08:39:40.426Z,21.48
2023-01-23T08:40:43.723Z,22.10
2023-01-23T08:41:46.506Z,23.10
2023-01-23T08:42:49.155Z,23.35
2023-01-23T08:43:51.921Z,24.15
2023-01-23T08:44:54.850Z,23.38
2023-01-23T08:55:04.093Z,19.90
2023-01-23T08:56:09.722Z,22.27
2023-01-23T08:57:12.810Z,21.85
2023-01-23T08:58:14.655Z,21.20
2023-01-23T08:59:17.321Z,20.95
2023-01-23T09:00:21.486Z,21.95
2023-01-23T09:01:26.649Z,22.48
2023-01-23T09:02:29.406Z,22.35
2023-01-23T09:03:32.239Z,22.00
2023-01-23T09:04:35.299Z,21.23
2023-01-23T09:05:38.001Z,20.70
2023-01-23T09:06:40.916Z,20.55
2023-01-23T09:07:42.767Z,21.02
2023-01-23T09:08:46.214Z,21.70
2023-01-23T09:09:52.672Z,21.05
2023-01-23T09:10:56.679Z,21.17
2023-01-23T09:12:00.771Z,21.05
2023-01-23T09:13:02.565Z,21.17
2023-01-23T09:14:05.312Z,20.60
2023-01-23T09:15:08.304Z,21.23
2023-01-23T09:16:11.089Z,20.88
2023-01-23T09:17:13.822Z,21.48
2023-01-23T09:18:18.267Z,21.92
2023-01-23T09:19:21.058Z,21.63
2023-01-23T09:20:26.166Z,21.15
2023-01-23T09:21:29.138Z,21.35
2023-01-23T09:22:30.914Z,21.73
2023-01-23T09:23:36.730Z,21.27
2023-01-23T09:24:38.399Z,21.55
2023-01-23T09:25:41.785Z,20.02
2023-01-23T09:26:43.742Z,19.95
2023-01-23T09:27:48.063Z,27.17
2023-01-23T09:28:51.534Z,30.08
2023-01-23T09:29:54.706Z,40.20
2023-01-23T09:30:57.744Z,28.15
2023-01-23T09:32:00.571Z,22.13
2023-01-23T09:33:03.486Z,23.20
2023-01-23T09:34:07.959Z,28.98
2023-01-23T09:35:11.498Z,26.00
2023-01-23T09:36:14.230Z,24.08
2023-01-23T09:37:17.061Z,20.52
2023-01-23T09:38:18.939Z,20.48
2023-01-23T09:39:22.090Z,22.35
2023-01-23T09:40:25.245Z,21.35
2023-01-23T09:41:30.061Z,21.17
2023-01-23T09:42:34.709Z,21.77
2023-01-23T09:43:45.370Z,22.17
2023-01-23T09:44:54.057Z,16.05
2023-01-23T09:46:05.312Z,24.58
2023-01-23T09:47:14.487Z,22.60
2023-01-23T09:48:23.207Z,21.17
2023-01-23T09:49:29.365Z,20.33
2023-01-23T09:50:39.183Z,20.75
2023-01-23T09:51:53.624Z,17.23
2023-01-23T09:53:00.467Z,23.33
2023-01-23T09:54:13.509Z,22.10
2023-01-23T09:55:22.361Z,21.33
2023-01-23T09:56:31.299Z,20.70
2023-01-23T09:57:38.131Z,21.15
2023-01-23T09:58:47.121Z,23.63
2023-01-23T10:00:00.171Z,21.10
2023-01-23T10:01:03.754Z,21.15
2023-01-23T10:02:16.432Z,21.45
2023-01-23T10:03:19.498Z,20.45
2023-01-23T10:04:21.405Z,21.70
2023-01-23T10:05:33.809Z,20.80
2023-01-23T10:07:00.137Z,21.10
2023-01-23T10:08:11.426Z,21.75
2023-01-23T10:09:29.021Z,21.35
2023-01-23T10:10:43.131Z,22.90
2023-01-23T10:11:55.505Z,22.45
2023-01-23T10:13:08.048Z,21.25
2023-01-23T10:14:40.304Z,21.10
2023-01-23T10:16:02.864Z,20.50
2023-01-23T10:17:13.861Z,21.88
2023-01-23T10:18:24.625Z,22.33
2023-01-23T10:19:52.305Z,20.88
2023-01-23T10:21:12.084Z,21.15
2023-01-23T10:22:33.596Z,19.45
2023-01-23T10:23:46.425Z,20.60
2023-01-23T10:24:52.131Z,26.73
2023-01-23T10:25:55.477Z,21.08
2023-01-23T10:27:04.958Z,20.70
2023-01-23T10:28:25.160Z,20.67
2023-01-23T10:29:32.678Z,20.45
2023-01-23T10:30:38.665Z,19.75
2023-01-23T10:31:46.655Z,20.52
2023-01-23T10:32:54.247Z,19.50
2023-01-23T10:34:05.449Z,18.95
2023-01-23T10:35:13.332Z,25.73
2023-01-23T10:36:27.386Z,21.65
2023-01-23T10:37:41.795Z,20.05
2023-01-23T10:38:51.341Z,20.00
2023-01-23T10:39:59.156Z,22.38
2023-01-23T10:41:23.341Z,20.88
2023-01-23T10:42:29.151Z,20.63
2023-01-23T10:43:33.561Z,20.25
2023-01-23T10:44:38.065Z,20.92
2023-01-23T10:45:41.929Z,19.90
2023-01-23T10:46:49.625Z,20.13
2023-01-23T10:47:55.101Z,20.55
2023-01-23T10:49:01.511Z,21.42
2023-01-23T10:50:05.166Z,20.77
2023-01-23T10:51:27.372Z,20.77
2023-01-23T10:52:35.044Z,20.58
2023-01-23T10:53:37.446Z,19.38
2023-01-23T10:54:48.254Z,18.75
2023-01-23T10:56:59.820Z,18.88
2023-01-23T10:58:03.405Z,20.23
2023-01-23T10:59:08.627Z,20.63
2023-01-23T11:00:23.621Z,18.85
2023-01-23T11:01:27.960Z,19.60
2023-01-23T11:02:37.442Z,19.23
2023-01-23T11:03:45.980Z,20.15
2023-01-23T11:04:51.954Z,20.35
2023-01-23T11:05:55.474Z,20.55
2023-01-23T11:07:03.940Z,20.02
2023-01-23T11:08:24.159Z,21.25
2023-01-23T11:09:27.454Z,20.70
2023-01-23T11:10:30.479Z,21.15
2023-01-23T11:11:34.576Z,20.92
2023-01-23T11:12:49.085Z,21.10
2023-01-23T11:14:04.280Z,20.67
2023-01-23T11:15:25.386Z,20.17
2023-01-23T11:16:28.081Z,21.88
2023-01-23T11:17:34.761Z,20.65
2023-01-23T11:18:43.133Z,22.10
2023-01-23T11:19:48.064Z,21.88
2023-01-23T11:20:55.725Z,22.15
2023-01-23T11:21:59.926Z,22.95
2023-01-23T11:23:15.058Z,22.45
2023-01-23T11:24:24.834Z,21.80
2023-01-23T11:25:36.883Z,20.75
2023-01-23T11:26:39.271Z,22.42
2023-01-23T11:27:42.050Z,21.65
2023-01-23T11:28:54.561Z,22.23
2023-01-23T11:30:35.241Z,22.17
2023-01-23T11:31:48.734Z,18.85
2023-01-23T11:32:57.872Z,21.60
2023-01-23T11:34:10.723Z,20.95
2023-01-23T11:35:17.027Z,22.23
2023-01-23T11:36:39.609Z,23.20
2023-01-23T11:37:44.667Z,20.67
2023-01-23T11:38:53.270Z,22.38
2023-01-23T11:40:01.711Z,21.60
2023-01-23T11:41:06.203Z,22.02
2023-01-23T11:42:12.064Z,23.33
2023-01-23T11:43:15.940Z,23.17
2023-01-23T11:44:22.696Z,23.58
2023-01-23T11:45:40.157Z,22.35
2023-01-23T11:46:57.253Z,22.95
2023-01-23T11:48:10.721Z,23.17
2023-01-23T11:49:29.423Z,23.13
2023-01-23T11:50:54.129Z,22.50
2023-01-23T11:52:12.437Z,22.83
2023-01-23T11:53:33.523Z,23.52
2023-01-23T11:55:01.132Z,24.08
2023-01-23T11:56:23.519Z,23.90
2023-01-23T11:57:36.819Z,23.42
2023-01-23T11:59:14.389Z,22.95
2023-01-23T12:00:33.901Z,22.55
2023-01-23T12:01:49.313Z,23.00
2023-01-23T12:03:21.831Z,22.70
2023-01-23T12:04:42.525Z,22.63
2023-01-23T12:07:24.652Z,23.30
2023-01-23T12:08:37.224Z,24.30
2023-01-23T12:09:53.098Z,23.52
2023-01-23T12:11:12.471Z,24.95
2023-01-23T12:12:25.718Z,23.77
2023-01-23T12:13:54.257Z,23.52
2023-01-23T12:15:05.617Z,23.88
2023-01-23T12:16:18.259Z,23.27
2023-01-23T12:17:34.566Z,23.52
2023-01-23T12:18:49.329Z,24.98
2023-01-23T12:20:03.507Z,23.73
2023-01-23T12:21:14.679Z,23.88
2023-01-23T12:22:29.803Z,23.77
2023-01-23T12:23:50.005Z,24.65
2023-01-23T12:25:07.815Z,18.80
2023-01-23T12:26:15.354Z,23.33
2023-01-23T12:27:29.356Z,24.33
2023-01-23T12:29:03.820Z,24.30
2023-01-23T12:30:25.983Z,23.20
2023-01-23T12:31:45.044Z,24.20
2023-01-23T12:32:58.960Z,24.15
2023-01-23T12:34:23.492Z,26.15
2023-01-23T12:35:36.959Z,25.35
2023-01-23T12:37:08.609Z,24.00
2023-01-23T12:38:34.397Z,25.15
2023-01-23T12:40:03.664Z,23.80
2023-01-23T12:41:16.255Z,24.65
2023-01-23T12:42:22.058Z,24.33
2023-01-23T12:43:37.575Z,25.42
2023-01-23T12:44:47.303Z,24.05
2023-01-23T12:45:55.446Z,24.30
2023-01-23T12:47:05.268Z,23.60
2023-01-23T12:48:15.762Z,24.45
2023-01-23T12:49:29.113Z,22.02
2023-01-23T12:50:39.127Z,24.48
2023-01-23T12:51:48.587Z,23.92
2023-01-23T12:52:53.307Z,25.77
2023-01-23T12:54:01.347Z,25.05
2023-01-23T12:55:07.762Z,25.83
2023-01-23T12:56:16.561Z,25.98
2023-01-23T12:57:52.902Z,24.55
2023-01-23T12:59:10.275Z,26.42
2023-01-23T13:00:24.278Z,19.02
2023-01-23T13:01:48.829Z,25.42
2023-01-23T13:03:02.261Z,25.13
2023-01-23T13:04:22.765Z,24.77
2023-01-23T13:05:32.510Z,20.45
2023-01-23T13:07:12.150Z,25.27
2023-01-23T13:08:25.263Z,24.95
2023-01-23T13:09:41.339Z,26.08
2023-01-23T13:11:19.690Z,24.45
2023-01-23T13:12:24.516Z,25.08
2023-01-23T13:13:27.840Z,26.05
2023-01-23T13:15:10.212Z,24.65
2023-01-23T13:16:12.894Z,25.48
2023-01-23T13:17:37.760Z,25.00
2023-01-23T13:18:58.338Z,25.67
2023-01-23T13:20:39.032Z,20.23
2023-01-23T13:21:59.950Z,24.85
2023-01-23T13:23:24.845Z,25.17
2023-01-23T13:25:03.102Z,24.67
2023-01-23T13:26:31.293Z,25.83
2023-01-23T13:27:43.658Z,23.20
2023-01-23T13:28:54.074Z,25.83
2023-01-23T13:29:58.779Z,20.50
2023-01-23T13:31:06.148Z,24.10
2023-01-23T13:32:25.514Z,23.05
2023-01-23T13:33:53.809Z,24.15
2023-01-23T13:34:59.180Z,24.10
2023-01-23T13:36:13.936Z,24.20
2023-01-23T13:38:02.414Z,25.45
2023-01-23T13:39:21.447Z,26.05
2023-01-23T13:40:25.764Z,24.63
2023-01-23T13:41:29.173Z,25.30
2023-01-23T13:42:37.989Z,23.77
2023-01-23T13:43:53.538Z,23.13
2023-01-23T13:45:27.070Z,23.73
2023-01-23T14:28:24.530Z,23.95
2023-01-23T14:29:29.173Z,24.38
2023-01-23T14:30:31.885Z,24.77
2023-01-23T14:31:36.969Z,24.70
2023-01-23T14:32:40.219Z,23.90
2023-01-23T14:33:45.655Z,26.38
2023-01-23T14:34:47.992Z,25.20
2023-01-23T14:35:52.016Z,25.75
2023-01-23T14:37:03.370Z,25.75
2023-01-23T14:38:07.497Z,24.63
2023-01-23T14:39:21.769Z,24.48
2023-01-23T14:40:29.523Z,24.88
2023-01-23T14:41:46.275Z,25.75
2023-01-23T14:42:58.551Z,26.13
2023-01-23T14:44:08.179Z,25.88
2023-01-23T14:45:15.327Z,24.95
2023-01-23T14:46:32.969Z,26.58
2023-01-23T14:47:42.233Z,26.23
2023-01-23T14:48:53.858Z,28.10
2023-01-23T14:49:59.449Z,26.92
2023-01-23T14:51:07.735Z,26.85
2023-01-23T14:52:24.575Z,26.58
2023-01-23T14:53:26.949Z,27.63
2023-01-23T14:54:37.709Z,26.73
2023-01-23T14:55:46.508Z,26.98
2023-01-23T14:56:54.441Z,25.25
2023-01-23T14:58:03.005Z,24.25
2023-01-23T14:59:14.423Z,25.38
2023-01-23T15:00:19.617Z,25.50
2023-01-23T15:01:25.023Z,24.33
2023-01-23T15:02:33.494Z,26.58
2023-01-23T15:03:39.787Z,25.17
2023-01-23T15:04:42.968Z,26.05
2023-01-23T15:05:56.999Z,25.67
2023-01-23T15:07:02.288Z,24.17
2023-01-23T15:08:16.120Z,26.13
2023-01-23T15:09:19.489Z,25.38
2023-01-23T15:10:24.238Z,23.60
2023-01-23T15:11:29.309Z,25.20